Time;durP1;ratioP1;P1;durP2;ratioP2;P2;SDS_P1;SDS_P2;PMS_P1;PMS_P2;Temp;Humidity;BMP_temperature;BMP_pressure;BME280_temperature;BME280_humidity;BME280_pressure;Samples;Min_cycle;Max_cycle;Signal;HPM_P1;HPM_P2
2022/10/24 00:01:21;;;;;;;;;;;20.10;74.70;;;;;;5054565;28;20012;-64
2022/10/24 00:03:48;;;;;;;;;;;20.10;74.70;;;;;;5053898;28;19925;-64
2022/10/24 00:06:13;;;;;;;;;;;20.10;74.70;;;;;;5054865;28;19932;-64
2022/10/24 00:08:39;;;;;;;;;;;20.00;74.50;;;;;;5054390;28;19929;-64
2022/10/24 00:11:12;;;;;;;;;;;20.00;74.60;;;;;;5055155;28;19925;-64
2022/10/24 00:13:37;;;;;;;;;;;20.00;74.60;;;;;;5054638;28;20472;-64
2022/10/24 00:16:03;;;;;;;;;;;20.00;74.50;;;;;;5054026;28;20026;-64
2022/10/24 00:18:28;;;;;;;;;;;20.00;74.50;;;;;;5054644;28;19931;-63
2022/10/24 00:20:54;;;;;;;;;;;20.00;74.60;;;;;;5056353;28;20039;-64
2022/10/24 00:23:20;;;;;;;;;;;20.00;74.50;;;;;;5053852;28;19925;-64
2022/10/24 00:25:45;;;;;;;;;;;20.00;74.60;;;;;;5054657;28;19947;-64
2022/10/24 00:28:10;;;;;;;;;;;20.00;74.50;;;;;;5054250;28;20078;-64
2022/10/24 00:30:36;;;;;;;;;;;20.00;74.50;;;;;;5054028;28;20285;-64
2022/10/24 00:33:01;;;;;;;;;;;20.00;74.50;;;;;;5054591;28;19947;-64
2022/10/24 00:35:27;;;;;;;;;;;20.00;74.50;;;;;;5054335;28;20372;-64
2022/10/24 00:37:52;;;;;;;;;;;20.00;74.50;;;;;;5053533;28;19931;-64
2022/10/24 00:40:18;;;;;;;;;;;20.00;74.50;;;;;;5053643;28;20304;-64
2022/10/24 00:42:44;;;;;;;;;;;20.00;74.50;;;;;;5054171;28;19925;-63
2022/10/24 00:45:28;;;;;;;;;;;20.00;74.50;;;;;;5053405;28;19925;-64
2022/10/24 00:47:53;;;;;;;;;;;20.00;74.50;;;;;;5054273;28;19925;-63
2022/10/24 00:50:19;;;;;;;;;;;20.00;74.50;;;;;;5053630;28;19947;-64
2022/10/24 00:52:45;;;;;;;;;;;20.00;74.50;;;;;;5053569;28;20005;-64
2022/10/24 00:55:10;;;;;;;;;;;20.00;74.50;;;;;;5069120;28;20380;-64
2022/10/24 00:57:36;;;;;;;;;;;20.00;74.50;;;;;;5069531;28;19986;-64
2022/10/24 01:00:06;;;;;;;;;;;20.00;74.40;;;;;;5053482;28;19975;-64
2022/10/24 01:02:31;;;;;;;;;;;20.00;74.50;;;;;;5054005;28;19928;-64
2022/10/24 01:04:57;;;;;;;;;;;20.00;74.40;;;;;;5053321;28;20020;-64
2022/10/24 01:07:46;;;;;;;;;;;20.00;74.50;;;;;;5052998;28;20020;-64
2022/10/24 01:10:24;;;;;;;;;;;19.90;74.40;;;;;;5047874;28;19928;-64
2022/10/24 01:12:58;;;;;;;;;;;20.00;74.40;;;;;;5053231;28;20019;-64
2022/10/24 01:15:27;;;;;;;;;;;19.90;74.30;;;;;;5052338;28;19924;-64
2022/10/24 01:18:12;;;;;;;;;;;19.90;74.30;;;;;;5053550;28;20323;-63
2022/10/24 01:20:43;;;;;;;;;;;19.90;74.40;;;;;;5068434;28;19928;-64
2022/10/24 01:23:31;;;;;;;;;;;19.90;74.30;;;;;;5053351;28;19927;-63
2022/10/24 01:26:09;;;;;;;;;;;19.90;74.30;;;;;;5052767;28;20300;-64
2022/10/24 01:28:57;;;;;;;;;;;19.90;74.30;;;;;;5068725;28;20304;-64
2022/10/24 01:31:32;;;;;;;;;;;20.00;74.30;;;;;;5068712;28;19925;-63
2022/10/24 01:34:00;;;;;;;;;;;19.90;74.30;;;;;;5068395;28;19931;-64
2022/10/24 01:36:31;;;;;;;;;;;19.90;74.30;;;;;;5068605;28;19928;-64
2022/10/24 01:38:58;;;;;;;;;;;19.90;74.30;;;;;;5053447;28;19925;-65
2022/10/24 01:41:25;;;;;;;;;;;19.90;74.30;;;;;;5067971;28;19965;-64
2022/10/24 01:43:56;;;;;;;;;;;19.90;74.20;;;;;;5068616;28;20344;-64
2022/10/24 01:46:23;;;;;;;;;;;19.90;74.20;;;;;;5068311;28;19928;-64
2022/10/24 01:48:51;;;;;;;;;;;19.90;74.20;;;;;;5068121;28;19924;-64
2022/10/24 01:51:16;;;;;;;;;;;19.90;74.20;;;;;;5067364;28;19924;-63
2022/10/24 01:53:42;;;;;;;;;;;19.90;74.20;;;;;;5068481;28;19931;-64
2022/10/24 01:56:07;;;;;;;;;;;19.90;74.20;;;;;;5052235;28;19959;-63
2022/10/24 01:58:33;;;;;;;;;;;19.90;74.20;;;;;;5035177;28;19925;-64
2022/10/24 02:01:00;;;;;;;;;;;19.90;74.20;;;;;;5045659;28;19929;-64
2022/10/24 02:03:31;;;;;;;;;;;19.90;74.20;;;;;;5032935;28;20392;-64
2022/10/24 02:06:15;;;;;;;;;;;19.90;74.20;;;;;;5048003;28;19937;-63
2022/10/24 02:08:42;;;;;;;;;;;19.90;74.20;;;;;;5047619;28;19925;-63
2022/10/24 02:11:07;;;;;;;;;;;19.90;74.20;;;;;;5048063;28;19944;-63
2022/10/24 02:13:35;;;;;;;;;;;19.90;74.20;;;;;;5047205;28;20365;-64
2022/10/24 02:16:01;;;;;;;;;;;19.90;74.10;;;;;;5067860;28;19925;-64
2022/10/24 02:18:26;;;;;;;;;;;19.80;74.10;;;;;;5052455;28;19931;-64
2022/10/24 02:20:52;;;;;;;;;;;19.90;74.10;;;;;;5057164;28;20377;-64
2022/10/24 02:23:19;;;;;;;;;;;19.80;74.10;;;;;;5055999;28;19921;-64
2022/10/24 02:25:45;;;;;;;;;;;19.80;74.10;;;;;;5056214;28;20331;-64
2022/10/24 02:28:14;;;;;;;;;;;19.80;74.10;;;;;;5055144;28;19924;-64
2022/10/24 02:30:50;;;;;;;;;;;19.80;74.10;;;;;;5056299;28;19972;-64
2022/10/24 02:33:16;;;;;;;;;;;19.80;74.10;;;;;;5071870;28;19925;-64
2022/10/24 02:35:41;;;;;;;;;;;19.90;74.10;;;;;;5056781;28;19928;-64
2022/10/24 02:38:11;;;;;;;;;;;19.80;74.00;;;;;;5071352;28;20386;-63
2022/10/24 02:40:37;;;;;;;;;;;19.80;74.00;;;;;;5072002;28;19946;-64
2022/10/24 02:43:02;;;;;;;;;;;19.80;74.00;;;;;;5056604;28;20365;-64
2022/10/24 02:45:28;;;;;;;;;;;19.80;74.00;;;;;;5071009;28;19996;-63
2022/10/24 02:47:54;;;;;;;;;;;19.80;73.90;;;;;;5056591;28;19925;-64
2022/10/24 02:50:19;;;;;;;;;;;19.80;73.90;;;;;;5070734;28;20453;-64
2022/10/24 02:52:45;;;;;;;;;;;19.80;73.90;;;;;;5072101;28;19968;-64
2022/10/24 02:55:10;;;;;;;;;;;19.80;73.90;;;;;;5071662;28;19928;-64
2022/10/24 02:57:36;;;;;;;;;;;19.80;73.90;;;;;;5055631;28;19929;-64
2022/10/24 03:00:02;;;;;;;;;;;19.80;73.90;;;;;;5056248;28;19931;-65
2022/10/24 03:02:28;;;;;;;;;;;19.80;74.00;;;;;;5055418;28;20411;-64
2022/10/24 03:04:53;;;;;;;;;;;19.80;73.90;;;;;;5055731;28;20023;-64
2022/10/24 03:07:18;;;;;;;;;;;19.80;73.90;;;;;;5055849;28;19983;-64
2022/10/24 03:09:44;;;;;;;;;;;19.80;73.90;;;;;;5056079;28;20355;-64
2022/10/24 03:12:12;;;;;;;;;;;19.80;73.90;;;;;;5054735;28;19925;-64
2022/10/24 03:14:37;;;;;;;;;;;19.80;73.90;;;;;;5071398;28;19953;-64
2022/10/24 03:17:03;;;;;;;;;;;19.80;73.90;;;;;;5055940;28;20331;-64
2022/10/24 03:19:28;;;;;;;;;;;19.80;73.90;;;;;;5054528;28;19920;-64
2022/10/24 03:21:54;;;;;;;;;;;19.80;73.90;;;;;;5055864;28;20441;-64
2022/10/24 03:24:19;;;;;;;;;;;19.80;73.90;;;;;;5055597;28;19932;-64
2022/10/24 03:26:45;;;;;;;;;;;19.80;74.00;;;;;;5055083;28;19978;-64
2022/10/24 03:29:12;;;;;;;;;;;19.80;73.90;;;;;;5055641;28;19925;-64
2022/10/24 03:31:38;;;;;;;;;;;19.80;74.00;;;;;;5055461;28;19932;-64
2022/10/24 03:34:04;;;;;;;;;;;19.80;73.90;;;;;;5054887;28;19925;-64
2022/10/24 03:36:29;;;;;;;;;;;19.90;73.90;;;;;;5055487;28;20031;-64
2022/10/24 03:38:55;;;;;;;;;;;19.80;73.90;;;;;;5055544;28;19943;-64
2022/10/24 03:41:20;;;;;;;;;;;19.80;73.90;;;;;;5054743;28;20012;-64
2022/10/24 03:43:46;;;;;;;;;;;19.90;73.90;;;;;;5070007;28;22221;-64
2022/10/24 03:46:12;;;;;;;;;;;19.90;73.90;;;;;;5055069;28;20380;-64
2022/10/24 03:48:37;;;;;;;;;;;19.90;73.80;;;;;;5054644;28;20012;-63
2022/10/24 03:51:03;;;;;;;;;;;19.90;73.90;;;;;;5055538;28;19925;-63
2022/10/24 03:53:28;;;;;;;;;;;19.90;73.80;;;;;;5054908;28;19928;-63
2022/10/24 03:55:56;;;;;;;;;;;19.90;74.40;;;;;;5053385;28;19932;-64
2022/10/24 03:58:21;;;;;;;;;;;19.90;73.80;;;;;;5054984;28;19931;-64
2022/10/24 04:00:47;;;;;;;;;;;19.90;73.80;;;;;;5049878;28;19925;-64
2022/10/24 04:03:12;;;;;;;;;;;19.90;73.80;;;;;;5043164;28;20023;-64
2022/10/24 04:05:38;;;;;;;;;;;19.90;73.80;;;;;;5054598;28;19970;-63
2022/10/24 04:08:04;;;;;;;;;;;19.90;73.80;;;;;;5054074;28;20039;-64
2022/10/24 04:10:30;;;;;;;;;;;19.90;73.80;;;;;;5054907;28;20420;-64
2022/10/24 04:12:55;;;;;;;;;;;19.90;73.70;;;;;;5055119;28;19924;-64
2022/10/24 04:15:20;;;;;;;;;;;20.00;73.80;;;;;;5053437;28;20007;-63
2022/10/24 04:17:46;;;;;;;;;;;19.90;73.70;;;;;;5054816;28;19924;-64
2022/10/24 04:20:11;;;;;;;;;;;20.00;73.70;;;;;;5070140;28;19929;-64
2022/10/24 04:22:37;;;;;;;;;;;20.00;73.70;;;;;;5053843;28;20280;-64
2022/10/24 04:25:03;;;;;;;;;;;20.00;73.70;;;;;;5054994;28;20019;-64
2022/10/24 04:27:28;;;;;;;;;;;20.00;73.60;;;;;;5054497;28;19950;-64
2022/10/24 04:29:54;;;;;;;;;;;20.00;73.70;;;;;;5053914;28;19925;-64
2022/10/24 04:32:19;;;;;;;;;;;20.00;73.60;;;;;;5054286;28;20372;-63
2022/10/24 04:34:44;;;;;;;;;;;20.00;73.60;;;;;;5054614;28;19925;-64
2022/10/24 04:37:10;;;;;;;;;;;20.00;73.60;;;;;;5053336;28;19994;-64
2022/10/24 04:39:35;;;;;;;;;;;20.00;73.60;;;;;;5054038;28;19932;-64
2022/10/24 04:42:01;;;;;;;;;;;20.00;73.60;;;;;;5053784;28;20071;-64
2022/10/24 04:44:26;;;;;;;;;;;20.00;73.60;;;;;;5053453;28;20019;-64
2022/10/24 04:46:52;;;;;;;;;;;20.00;73.60;;;;;;5054386;28;19932;-64
2022/10/24 04:49:17;;;;;;;;;;;20.00;73.50;;;;;;5069408;28;19925;-64
2022/10/24 04:51:43;;;;;;;;;;;20.00;73.50;;;;;;5053310;28;19924;-64
2022/10/24 04:54:08;;;;;;;;;;;20.00;73.50;;;;;;5053850;28;19932;-64
2022/10/24 04:56:34;;;;;;;;;;;20.00;73.60;;;;;;5054055;28;20270;-64
2022/10/24 04:58:59;;;;;;;;;;;20.00;73.50;;;;;;5053119;28;19931;-64
2022/10/24 05:01:25;;;;;;;;;;;20.00;73.50;;;;;;5053634;28;19936;-64
2022/10/24 05:03:50;;;;;;;;;;;20.00;73.50;;;;;;5053698;28;19929;-64
2022/10/24 05:06:16;;;;;;;;;;;20.00;73.50;;;;;;5053244;28;19924;-64
2022/10/24 05:08:41;;;;;;;;;;;20.00;73.50;;;;;;5053989;28;20046;-64
2022/10/24 05:11:10;;;;;;;;;;;20.00;73.50;;;;;;5052684;28;20395;-64
2022/10/24 05:13:36;;;;;;;;;;;20.00;73.50;;;;;;5053806;28;19925;-64
2022/10/24 05:16:01;;;;;;;;;;;20.00;73.50;;;;;;5053736;28;19925;-64
2022/10/24 05:18:27;;;;;;;;;;;20.00;73.50;;;;;;5052773;28;19983;-64
2022/10/24 05:20:54;;;;;;;;;;;20.00;73.50;;;;;;5053688;28;19925;-64
2022/10/24 05:23:20;;;;;;;;;;;20.00;73.40;;;;;;5053186;28;19925;-64
2022/10/24 05:25:45;;;;;;;;;;;20.00;73.40;;;;;;5052639;28;19931;-64
2022/10/24 05:28:11;;;;;;;;;;;20.00;73.40;;;;;;5052841;28;19983;-64
2022/10/24 05:30:36;;;;;;;;;;;20.00;73.40;;;;;;5053576;28;19925;-64
2022/10/24 05:33:02;;;;;;;;;;;20.00;73.40;;;;;;5052949;28;20426;-64
2022/10/24 05:35:27;;;;;;;;;;;20.00;73.40;;;;;;5053025;28;20019;-63
2022/10/24 05:37:53;;;;;;;;;;;20.00;73.40;;;;;;5053358;28;20364;-63
2022/10/24 05:40:18;;;;;;;;;;;20.00;73.40;;;;;;5051997;28;20012;-64
2022/10/24 05:42:44;;;;;;;;;;;20.00;73.40;;;;;;5052927;28;19956;-64
2022/10/24 05:45:11;;;;;;;;;;;20.00;73.30;;;;;;5052940;28;20019;-64
2022/10/24 05:47:36;;;;;;;;;;;20.00;73.40;;;;;;5052338;28;19964;-64
2022/10/24 05:50:02;;;;;;;;;;;20.00;73.40;;;;;;5053479;28;20361;-64
2022/10/24 05:52:27;;;;;;;;;;;20.00;73.40;;;;;;5053089;28;19925;-64
2022/10/24 05:54:53;;;;;;;;;;;20.00;73.40;;;;;;5051898;28;20011;-64
2022/10/24 05:57:18;;;;;;;;;;;20.00;73.40;;;;;;5052864;28;19932;-64
2022/10/24 05:59:44;;;;;;;;;;;20.00;73.30;;;;;;5053304;28;19983;-63
2022/10/24 06:02:15;;;;;;;;;;;20.00;73.30;;;;;;5051770;28;20339;-64
2022/10/24 06:04:41;;;;;;;;;;;20.00;73.30;;;;;;5035298;28;19924;-64
2022/10/24 06:07:06;;;;;;;;;;;20.00;73.30;;;;;;5052586;28;20001;-64
2022/10/24 06:09:31;;;;;;;;;;;20.00;73.30;;;;;;5052446;28;19932;-64
2022/10/24 06:11:57;;;;;;;;;;;20.00;73.30;;;;;;5052741;28;20403;-64
2022/10/24 06:14:22;;;;;;;;;;;20.00;73.30;;;;;;5051933;28;19924;-64
2022/10/24 06:16:48;;;;;;;;;;;20.00;73.30;;;;;;5053069;28;20003;-64
2022/10/24 06:19:13;;;;;;;;;;;20.00;73.30;;;;;;5052476;28;19932;-64
2022/10/24 06:21:39;;;;;;;;;;;20.00;73.30;;;;;;5052173;28;19928;-64
2022/10/24 06:24:04;;;;;;;;;;;20.00;73.30;;;;;;5052808;28;19924;-64
2022/10/24 06:26:30;;;;;;;;;;;20.00;73.30;;;;;;5052284;28;19934;-63
2022/10/24 06:28:55;;;;;;;;;;;20.00;73.30;;;;;;5052099;28;19924;-64
2022/10/24 06:31:21;;;;;;;;;;;20.00;73.30;;;;;;5052692;28;19931;-63
2022/10/24 06:33:46;;;;;;;;;;;20.00;73.30;;;;;;5052690;28;20398;-64
2022/10/24 06:36:13;;;;;;;;;;;20.00;73.30;;;;;;5051762;28;19936;-61
2022/10/24 06:38:38;;;;;;;;;;;20.00;73.30;;;;;;5052593;28;19986;-62
2022/10/24 06:41:07;;;;;;;;;;;20.10;73.40;;;;;;5052510;28;19924;-63
2022/10/24 06:43:33;;;;;;;;;;;20.00;73.30;;;;;;5052321;28;19968;-62
2022/10/24 06:45:58;;;;;;;;;;;20.00;73.50;;;;;;5053036;28;19995;-62
2022/10/24 06:48:24;;;;;;;;;;;20.10;73.50;;;;;;5052620;28;19931;-62
2022/10/24 06:50:49;;;;;;;;;;;20.10;73.50;;;;;;5052178;28;19948;-62
2022/10/24 06:53:14;;;;;;;;;;;20.10;73.50;;;;;;5052331;28;19925;-62
2022/10/24 06:55:40;;;;;;;;;;;20.10;73.60;;;;;;5053367;28;20287;-62
2022/10/24 06:58:05;;;;;;;;;;;20.10;73.50;;;;;;5052559;28;19932;-62
2022/10/24 07:00:32;;;;;;;;;;;20.10;73.60;;;;;;5052764;28;20345;-61
2022/10/24 07:02:58;;;;;;;;;;;20.20;73.60;;;;;;5052551;28;19925;-62
2022/10/24 07:05:23;;;;;;;;;;;20.10;73.50;;;;;;5052700;28;20033;-62
2022/10/24 07:07:49;;;;;;;;;;;20.20;73.60;;;;;;5055788;28;19925;-62
2022/10/24 07:10:14;;;;;;;;;;;20.20;73.60;;;;;;5055669;28;19924;-62
2022/10/24 07:12:41;;;;;;;;;;;20.20;73.60;;;;;;5055163;28;20025;-64
2022/10/24 07:15:07;;;;;;;;;;;20.20;73.60;;;;;;5055267;28;19948;-62
2022/10/24 07:17:37;;;;;;;;;;;20.20;73.50;;;;;;5055372;28;20305;-61
2022/10/24 07:20:03;;;;;;;;;;;20.20;73.40;;;;;;5056147;28;19972;-62
2022/10/24 07:22:28;;;;;;;;;;;20.20;73.40;;;;;;5055342;28;20021;-62
2022/10/24 07:24:54;;;;;;;;;;;20.30;73.50;;;;;;5055198;28;19924;-63
2022/10/24 07:27:19;;;;;;;;;;;20.30;73.50;;;;;;5055623;28;19929;-62
2022/10/24 07:29:45;;;;;;;;;;;20.30;73.50;;;;;;5055935;28;19979;-62
2022/10/24 07:32:10;;;;;;;;;;;20.30;73.40;;;;;;5054499;28;20002;-62
2022/10/24 07:34:37;;;;;;;;;;;20.30;73.40;;;;;;5055303;28;19957;-62
2022/10/24 07:37:03;;;;;;;;;;;20.30;73.40;;;;;;5070466;28;19936;-62
2022/10/24 07:39:28;;;;;;;;;;;20.30;73.40;;;;;;5054254;28;19925;-62
2022/10/24 07:41:54;;;;;;;;;;;20.30;73.40;;;;;;5054394;28;19968;-61
2022/10/24 07:44:19;;;;;;;;;;;20.30;73.40;;;;;;5054464;28;19947;-62
2022/10/24 07:46:45;;;;;;;;;;;20.40;73.60;;;;;;5054782;28;19925;-62
2022/10/24 07:49:10;;;;;;;;;;;20.40;73.40;;;;;;5054291;28;19932;-63
2022/10/24 07:51:35;;;;;;;;;;;20.40;73.30;;;;;;5054905;28;19929;-63
2022/10/24 07:54:01;;;;;;;;;;;20.40;73.20;;;;;;5054250;28;19925;-62
2022/10/24 07:56:26;;;;;;;;;;;20.40;73.10;;;;;;5055109;28;20396;-62
2022/10/24 07:58:53;;;;;;;;;;;20.40;72.70;;;;;;5055267;28;19938;-63
2022/10/24 08:01:20;;;;;;;;;;;20.40;72.30;;;;;;5053809;28;19986;-64
2022/10/24 08:03:46;;;;;;;;;;;20.40;72.00;;;;;;5055690;28;19925;-63
2022/10/24 08:06:12;;;;;;;;;;;20.40;72.20;;;;;;5054841;28;19932;-62
2022/10/24 08:08:37;;;;;;;;;;;20.40;72.20;;;;;;5054005;28;19929;-62
2022/10/24 08:11:06;;;;;;;;;;;20.50;72.30;;;;;;5054641;28;19933;-63
2022/10/24 08:13:32;;;;;;;;;;;20.50;72.30;;;;;;5054061;28;19943;-63
2022/10/24 08:15:57;;;;;;;;;;;20.50;72.30;;;;;;5053596;28;19929;-62
2022/10/24 08:18:23;;;;;;;;;;;20.50;72.30;;;;;;5054329;28;20038;-62
2022/10/24 08:20:55;;;;;;;;;;;20.50;72.30;;;;;;5054185;28;20376;-62
2022/10/24 08:23:21;;;;;;;;;;;20.50;72.30;;;;;;5054511;28;19931;-62
2022/10/24 08:25:46;;;;;;;;;;;20.60;72.30;;;;;;5054553;28;19925;-62
2022/10/24 08:28:11;;;;;;;;;;;20.60;72.30;;;;;;5053605;28;20392;-62
2022/10/24 08:30:37;;;;;;;;;;;20.60;72.30;;;;;;5054555;28;19924;-62
2022/10/24 08:33:02;;;;;;;;;;;20.60;72.30;;;;;;5054770;28;19986;-62
2022/10/24 08:35:28;;;;;;;;;;;20.60;72.20;;;;;;5053335;28;20019;-63
2022/10/24 08:37:53;;;;;;;;;;;20.70;72.30;;;;;;5054233;28;19952;-62
2022/10/24 08:40:19;;;;;;;;;;;20.70;72.20;;;;;;5053965;28;19925;-62
2022/10/24 08:42:45;;;;;;;;;;;20.70;72.20;;;;;;5069384;28;19929;-62
2022/10/24 08:45:23;;;;;;;;;;;20.70;72.20;;;;;;5069528;28;19925;-62
2022/10/24 08:47:55;;;;;;;;;;;20.70;72.10;;;;;;5069701;28;19925;-62
2022/10/24 08:50:23;;;;;;;;;;;20.70;72.10;;;;;;5053345;28;20019;-62
2022/10/24 08:52:50;;;;;;;;;;;20.80;72.00;;;;;;5054016;28;19940;-62
2022/10/24 08:55:27;;;;;;;;;;;20.80;72.00;;;;;;5053965;28;19932;-62
2022/10/24 08:57:53;;;;;;;;;;;20.80;72.00;;;;;;5069072;28;19982;-62
2022/10/24 09:00:19;;;;;;;;;;;20.80;71.90;;;;;;5069427;28;19931;-62
2022/10/24 09:02:46;;;;;;;;;;;20.80;72.00;;;;;;5053115;28;20023;-62
2022/10/24 09:05:24;;;;;;;;;;;20.80;72.00;;;;;;5068250;28;20284;-62
2022/10/24 09:08:00;;;;;;;;;;;20.80;72.00;;;;;;5053826;28;19932;-62
2022/10/24 09:10:32;;;;;;;;;;;20.80;72.00;;;;;;5068320;28;19983;-62
2022/10/24 09:12:57;;;;;;;;;;;20.80;71.90;;;;;;5065741;28;19932;-63
2022/10/24 09:15:28;;;;;;;;;;;20.80;71.90;;;;;;5052810;28;19925;-62
2022/10/24 09:17:54;;;;;;;;;;;20.80;71.90;;;;;;5066858;28;19987;-62
2022/10/24 09:20:24;;;;;;;;;;;20.80;71.80;;;;;;5052637;28;19932;-62
2022/10/24 09:22:50;;;;;;;;;;;20.80;71.90;;;;;;5052846;28;19968;-62
2022/10/24 09:25:17;;;;;;;;;;;20.80;71.90;;;;;;5052096;28;19924;-62
2022/10/24 09:27:43;;;;;;;;;;;20.80;72.00;;;;;;5068770;28;19929;-62
2022/10/24 09:30:18;;;;;;;;;;;20.80;72.00;;;;;;5068709;28;19931;-62
2022/10/24 09:32:44;;;;;;;;;;;20.80;72.00;;;;;;5052827;28;19932;-62
2022/10/24 09:35:17;;;;;;;;;;;20.80;72.00;;;;;;5067904;28;19925;-62
2022/10/24 09:37:47;;;;;;;;;;;20.80;71.90;;;;;;5050377;28;20053;-62
2022/10/24 09:40:22;;;;;;;;;;;20.80;72.00;;;;;;5051411;28;19932;-62
2022/10/24 09:42:49;;;;;;;;;;;20.80;71.90;;;;;;5051362;28;19924;-62
2022/10/24 09:45:19;;;;;;;;;;;20.80;71.90;;;;;;5051405;28;20019;-63
2022/10/24 09:47:44;;;;;;;;;;;20.80;71.90;;;;;;5040632;28;19975;-61
2022/10/24 09:50:19;;;;;;;;;;;20.80;71.90;;;;;;5065394;28;20021;-61
2022/10/24 09:52:46;;;;;;;;;;;20.80;71.90;;;;;;5051352;28;20363;-62
2022/10/24 09:55:19;;;;;;;;;;;20.80;71.90;;;;;;5065916;28;19925;-62
2022/10/24 09:57:45;;;;;;;;;;;20.80;71.80;;;;;;5039416;28;19932;-63
2022/10/24 10:00:26;;;;;;;;;;;20.80;71.90;;;;;;5051369;28;19925;-63
2022/10/24 10:02:58;;;;;;;;;;;20.80;71.90;;;;;;5052329;28;19999;-62
2022/10/24 10:05:24;;;;;;;;;;;20.80;71.80;;;;;;5052431;28;19924;-62
2022/10/24 10:07:49;;;;;;;;;;;20.80;71.80;;;;;;5051713;28;19958;-62
2022/10/24 10:10:21;;;;;;;;;;;20.80;71.80;;;;;;5034347;28;19924;-62
2022/10/24 10:12:54;;;;;;;;;;;20.80;71.80;;;;;;5052525;28;19924;-62
2022/10/24 10:15:28;;;;;;;;;;;20.80;71.90;;;;;;5051614;28;20291;-61
2022/10/24 10:17:54;;;;;;;;;;;20.70;71.70;;;;;;5052688;28;19929;-62
2022/10/24 10:20:37;;;;;;;;;;;20.80;71.90;;;;;;5051929;28;19925;-62
2022/10/24 10:23:21;;;;;;;;;;;20.70;71.80;;;;;;5033405;28;20284;-61
2022/10/24 10:25:46;;;;;;;;;;;20.70;72.40;;;;;;5052310;28;20337;-63
2022/10/24 10:28:19;;;;;;;;;;;20.70;71.80;;;;;;5050962;28;19935;-61
2022/10/24 10:30:49;;;;;;;;;;;20.70;71.80;;;;;;5052170;28;20395;-61
2022/10/24 10:33:35;;;;;;;;;;;20.70;71.90;;;;;;5051505;28;19925;-62
2022/10/24 10:36:10;;;;;;;;;;;20.60;71.90;;;;;;5066976;28;19970;-61
2022/10/24 10:38:39;;;;;;;;;;;20.70;71.90;;;;;;5051803;28;19920;-61
2022/10/24 10:41:07;;;;;;;;;;;20.70;71.90;;;;;;5054919;28;20058;-61
2022/10/24 10:43:33;;;;;;;;;;;20.60;71.90;;;;;;5055448;28;20392;-61
2022/10/24 10:46:01;;;;;;;;;;;20.60;71.90;;;;;;5055950;28;20008;-61
2022/10/24 10:48:39;;;;;;;;;;;20.60;71.90;;;;;;5055999;28;19928;-61
2022/10/24 10:51:10;;;;;;;;;;;20.60;72.00;;;;;;5055822;28;20071;-61
2022/10/24 10:53:37;;;;;;;;;;;20.60;72.00;;;;;;5071304;28;19924;-63
2022/10/24 10:56:12;;;;;;;;;;;20.60;72.10;;;;;;5037009;28;19928;-61
2022/10/24 10:58:56;;;;;;;;;;;20.60;72.10;;;;;;5055800;28;20008;-62
2022/10/24 11:01:32;;;;;;;;;;;20.60;72.00;;;;;;5055539;28;20015;-63
2022/10/24 11:04:11;;;;;;;;;;;20.60;72.10;;;;;;5070527;28;19931;-61
2022/10/24 11:07:01;;;;;;;;;;;20.60;72.10;;;;;;5056178;28;20020;-61
2022/10/24 11:09:32;;;;;;;;;;;20.60;72.10;;;;;;5070913;28;19929;-61
2022/10/24 11:12:13;;;;;;;;;;;20.60;72.20;;;;;;5054105;28;19924;-61
2022/10/24 11:14:40;;;;;;;;;;;20.60;72.20;;;;;;5049745;28;19925;-62
2022/10/24 11:17:11;;;;;;;;;;;20.60;72.10;;;;;;5066524;28;20016;-63
2022/10/24 11:19:49;;;;;;;;;;;20.60;72.10;;;;;;5038186;28;20040;-63
2022/10/24 11:22:16;;;;;;;;;;;20.60;72.00;;;;;;5049617;28;19925;-62
2022/10/24 11:24:42;;;;;;;;;;;20.60;72.10;;;;;;5054446;28;20346;-62
2022/10/24 11:27:20;;;;;;;;;;;20.60;72.10;;;;;;5069979;28;19978;-61
2022/10/24 11:29:45;;;;;;;;;;;20.60;72.10;;;;;;5070530;28;19924;-62
2022/10/24 11:32:11;;;;;;;;;;;20.60;72.00;;;;;;5054448;28;20323;-61
2022/10/24 11:34:39;;;;;;;;;;;20.60;71.90;;;;;;5055220;28;19925;-62
2022/10/24 11:37:06;;;;;;;;;;;20.60;71.90;;;;;;5054286;28;19971;-62
2022/10/24 11:39:44;;;;;;;;;;;20.60;71.90;;;;;;5054405;28;20012;-62
2022/10/24 11:42:29;;;;;;;;;;;20.60;71.80;;;;;;5070325;28;19931;-62
2022/10/24 11:44:57;;;;;;;;;;;20.60;71.80;;;;;;5034484;28;20399;-62
2022/10/24 11:47:22;;;;;;;;;;;20.70;71.80;;;;;;5050391;28;19925;-62
2022/10/24 11:49:48;;;;;;;;;;;20.60;71.70;;;;;;5035374;28;19932;-62
2022/10/24 11:52:14;;;;;;;;;;;20.60;71.60;;;;;;5032869;28;20044;-62
2022/10/24 11:54:40;;;;;;;;;;;20.60;71.60;;;;;;5035429;28;19929;-62
2022/10/24 11:57:25;;;;;;;;;;;20.60;71.60;;;;;;5050519;28;19929;-62
2022/10/24 11:59:51;;;;;;;;;;;20.60;71.60;;;;;;5034516;28;19960;-62
2022/10/24 12:02:26;;;;;;;;;;;20.60;71.50;;;;;;5034808;28;19929;-62
2022/10/24 12:05:00;;;;;;;;;;;20.70;71.60;;;;;;5035264;28;19925;-62
2022/10/24 12:07:45;;;;;;;;;;;20.60;71.50;;;;;;5033851;28;19929;-62
2022/10/24 12:10:22;;;;;;;;;;;20.60;71.60;;;;;;5034545;28;19925;-62
2022/10/24 12:12:57;;;;;;;;;;;20.60;71.50;;;;;;5035075;28;19932;-62
2022/10/24 12:15:34;;;;;;;;;;;20.60;71.50;;;;;;5034421;28;19925;-62
2022/10/24 12:18:03;;;;;;;;;;;20.60;71.50;;;;;;5035076;28;19925;-61
2022/10/24 12:20:30;;;;;;;;;;;20.60;71.40;;;;;;5033410;28;19921;-62
2022/10/24 12:22:55;;;;;;;;;;;20.60;71.40;;;;;;5049997;28;19925;-62
2022/10/24 12:25:47;;;;;;;;;;;20.60;71.30;;;;;;5049815;28;20016;-62
2022/10/24 12:28:17;;;;;;;;;;;20.60;71.30;;;;;;5031932;28;19937;-62
2022/10/24 12:30:42;;;;;;;;;;;20.60;71.30;;;;;;5050038;28;19929;-62
2022/10/24 12:33:20;;;;;;;;;;;20.60;71.20;;;;;;5052870;28;19925;-62
2022/10/24 12:35:47;;;;;;;;;;;20.60;71.30;;;;;;5053609;28;19925;-62
2022/10/24 12:38:27;;;;;;;;;;;20.50;71.20;;;;;;5053821;28;19971;-62
2022/10/24 12:40:56;;;;;;;;;;;20.50;71.20;;;;;;5053700;28;19929;-62
2022/10/24 12:43:34;;;;;;;;;;;20.50;71.20;;;;;;5052835;28;20326;-62
2022/10/24 12:46:14;;;;;;;;;;;20.50;71.20;;;;;;5053333;28;20026;-63
2022/10/24 12:48:44;;;;;;;;;;;20.60;71.30;;;;;;5053413;28;19934;-62
2022/10/24 12:51:26;;;;;;;;;;;20.50;71.30;;;;;;5068983;28;20399;-63
2022/10/24 12:53:59;;;;;;;;;;;20.50;71.20;;;;;;5052766;28;20265;-62
2022/10/24 12:56:24;;;;;;;;;;;20.50;71.20;;;;;;5067870;28;20404;-63
2022/10/24 12:59:19;;;;;;;;;;;20.50;71.30;;;;;;5052872;28;19964;-61
2022/10/24 13:01:45;;;;;;;;;;;20.50;71.30;;;;;;5039412;28;19935;-60
2022/10/24 13:04:30;;;;;;;;;;;20.50;71.30;;;;;;5049542;28;19925;-61
2022/10/24 13:07:14;;;;;;;;;;;20.50;71.20;;;;;;5052398;28;20027;-61
2022/10/24 13:09:58;;;;;;;;;;;20.50;71.30;;;;;;5051510;28;19947;-60
2022/10/24 13:12:42;;;;;;;;;;;20.50;71.50;;;;;;5049062;28;19933;-61
2022/10/24 13:15:17;;;;;;;;;;;20.60;71.50;;;;;;5033663;28;20566;-61
2022/10/24 13:17:43;;;;;;;;;;;20.60;71.50;;;;;;5048363;28;19925;-60
2022/10/24 13:20:18;;;;;;;;;;;20.60;71.50;;;;;;5052249;28;20288;-62
2022/10/24 13:22:44;;;;;;;;;;;20.60;71.60;;;;;;5052732;28;20408;-63
2022/10/24 13:25:20;;;;;;;;;;;20.60;71.60;;;;;;5066717;28;19979;-62
2022/10/24 13:27:45;;;;;;;;;;;20.60;71.60;;;;;;5068830;28;19925;-62
2022/10/24 13:30:29;;;;;;;;;;;20.60;71.70;;;;;;5067645;28;20027;-62
2022/10/24 13:33:21;;;;;;;;;;;20.60;71.70;;;;;;5051590;28;19925;-62
2022/10/24 13:35:46;;;;;;;;;;;20.60;71.60;;;;;;5043631;28;20366;-61
2022/10/24 13:38:12;;;;;;;;;;;20.60;71.60;;;;;;5066140;28;20340;-62
2022/10/24 13:40:37;;;;;;;;;;;20.50;71.60;;;;;;5052746;28;19925;-62
2022/10/24 13:43:03;;;;;;;;;;;20.50;71.70;;;;;;5052526;28;20486;-61
2022/10/24 13:45:37;;;;;;;;;;;20.50;71.80;;;;;;5050679;28;19927;-61
2022/10/24 13:48:07;;;;;;;;;;;20.50;71.80;;;;;;5052182;28;19928;-61
2022/10/24 13:50:33;;;;;;;;;;;20.50;71.80;;;;;;5052792;28;20019;-61
2022/10/24 13:53:12;;;;;;;;;;;20.60;71.90;;;;;;5052164;28;20016;-61
2022/10/24 13:55:40;;;;;;;;;;;20.60;71.90;;;;;;5067851;28;19931;-61
2022/10/24 13:58:22;;;;;;;;;;;20.50;71.90;;;;;;5067665;28;20014;-61
2022/10/24 14:00:55;;;;;;;;;;;20.50;71.80;;;;;;5051753;28;19936;-62
2022/10/24 14:03:21;;;;;;;;;;;20.60;71.80;;;;;;5051653;28;20451;-61
2022/10/24 14:05:58;;;;;;;;;;;20.60;71.90;;;;;;5067300;28;20090;-61
2022/10/24 14:08:34;;;;;;;;;;;20.60;71.90;;;;;;5067170;28;19933;-61
2022/10/24 14:11:00;;;;;;;;;;;20.60;72.00;;;;;;5052587;28;19933;-61
2022/10/24 14:13:27;;;;;;;;;;;20.60;72.00;;;;;;5066759;28;20747;-62
2022/10/24 14:15:53;;;;;;;;;;;20.60;72.00;;;;;;5051665;28;19931;-61
2022/10/24 14:18:19;;;;;;;;;;;20.60;72.00;;;;;;5052128;28;19925;-60
2022/10/24 14:20:49;;;;;;;;;;;20.70;72.00;;;;;;5051623;28;19931;-60
2022/10/24 14:23:21;;;;;;;;;;;20.70;72.00;;;;;;5051913;28;20380;-60
2022/10/24 14:25:47;;;;;;;;;;;20.70;71.90;;;;;;5042637;28;19937;-61